Time;durP1;ratioP1;P1;durP2;ratioP2;P2;SDS_P1;SDS_P2;PMS_P1;PMS_P2;Temp;Humidity;BMP_temperature;BMP_pressure;BME280_temperature;BME280_humidity;BME280_pressure;Samples;Min_cycle;Max_cycle;Signal;HPM_P1;HPM_P2
2023/08/21 00:00:51;;;;;;;3.05;0.40;;;;;;;;;;4934263;29;20054;-88
2023/08/21 00:03:17;;;;;;;1.95;0.40;;;;;;;;;;4953865;29;20524;-87
2023/08/21 00:05:43;;;;;;;2.00;0.68;;;;;;;;;;4925269;29;20023;-87
2023/08/21 00:08:09;;;;;;;1.85;0.50;;;;;;;;;;4946444;29;20042;-87
2023/08/21 00:10:37;;;;;;;1.88;0.40;;;;;;;;;;4949443;29;20022;-88
2023/08/21 00:13:03;;;;;;;1.58;0.40;;;;;;;;;;4930680;29;20035;-89
2023/08/21 00:15:29;;;;;;;3.70;0.50;;;;;;;;;;4955495;29;20051;-88
2023/08/21 00:17:56;;;;;;;1.77;0.40;;;;;;;;;;4927145;29;20043;-87
2023/08/21 00:20:22;;;;;;;1.88;0.50;;;;;;;;;;4945058;29;20079;-87
2023/08/21 00:22:47;;;;;;;3.05;0.80;;;;;;;;;;4937675;29;20082;-86
2023/08/21 00:25:14;;;;;;;1.60;0.50;;;;;;;;;;4950632;29;20038;-88
2023/08/21 00:27:40;;;;;;;1.65;0.60;;;;;;;;;;4935755;29;20027;-82
2023/08/21 00:30:06;;;;;;;1.50;0.40;;;;;;;;;;4926141;29;20028;-85
2023/08/21 00:32:32;;;;;;;4.10;0.60;;;;;;;;;;4928197;29;20625;-89
2023/08/21 00:34:58;;;;;;;1.90;0.50;;;;;;;;;;4942062;29;20028;-88
2023/08/21 00:37:24;;;;;;;3.58;0.60;;;;;;;;;;4946103;29;20102;-89
2023/08/21 00:39:50;;;;;;;1.67;0.50;;;;;;;;;;4931054;29;20027;-89
2023/08/21 00:42:16;;;;;;;3.58;0.60;;;;;;;;;;4938861;29;20027;-87
2023/08/21 00:44:42;;;;;;;1.02;0.40;;;;;;;;;;4946056;29;20051;-87
2023/08/21 00:47:08;;;;;;;2.92;0.40;;;;;;;;;;4938071;29;20031;-87
2023/08/21 00:49:35;;;;;;;2.22;0.40;;;;;;;;;;4943938;29;20020;-85
2023/08/21 00:52:01;;;;;;;1.95;0.43;;;;;;;;;;4928595;29;20423;-87
2023/08/21 00:54:28;;;;;;;1.30;0.43;;;;;;;;;;4945399;29;20028;-87
2023/08/21 00:56:54;;;;;;;2.28;0.60;;;;;;;;;;4944111;29;20086;-87
2023/08/21 00:59:20;;;;;;;2.75;0.60;;;;;;;;;;4927097;29;20028;-87
2023/08/21 01:01:46;;;;;;;2.65;0.40;;;;;;;;;;4944221;29;20031;-85
2023/08/21 01:04:12;;;;;;;2.50;0.45;;;;;;;;;;4926465;29;20050;-86
2023/08/21 01:06:38;;;;;;;3.13;0.52;;;;;;;;;;4942435;29;20056;-85
2023/08/21 01:09:08;;;;;;;1.23;0.40;;;;;;;;;;4942802;29;20027;-86
2023/08/21 01:12:00;;;;;;;2.53;0.50;;;;;;;;;;4941817;29;20394;-86
2023/08/21 01:14:36;;;;;;;2.22;0.50;;;;;;;;;;4922791;29;20028;-85
2023/08/21 01:17:04;;;;;;;1.85;0.47;;;;;;;;;;4925891;29;20124;-85
2023/08/21 01:19:40;;;;;;;2.33;0.45;;;;;;;;;;4925264;29;20056;-81
2023/08/21 01:22:07;;;;;;;2.70;0.52;;;;;;;;;;4941143;29;20414;-82
2023/08/21 01:24:33;;;;;;;4.03;0.52;;;;;;;;;;4941073;29;20026;-81
2023/08/21 01:26:59;;;;;;;1.63;0.40;;;;;;;;;;4940734;29;20055;-79
2023/08/21 01:29:26;;;;;;;3.63;0.80;;;;;;;;;;4941057;29;20078;-79
2023/08/21 01:31:57;;;;;;;2.15;0.50;;;;;;;;;;4923635;29;20138;-78
2023/08/21 01:34:23;;;;;;;2.05;0.40;;;;;;;;;;4941151;29;20484;-76
2023/08/21 01:36:50;;;;;;;2.35;0.57;;;;;;;;;;4923794;29;20031;-77
2023/08/21 01:39:16;;;;;;;3.70;0.60;;;;;;;;;;4913396;29;20032;-73
2023/08/21 01:41:42;;;;;;;2.42;0.50;;;;;;;;;;4938056;29;20039;-80
2023/08/21 01:44:08;;;;;;;2.00;0.50;;;;;;;;;;4940568;29;20032;-81
2023/08/21 01:46:34;;;;;;;1.40;0.40;;;;;;;;;;4923450;29;20031;-83
2023/08/21 01:49:00;;;;;;;3.55;0.60;;;;;;;;;;4924920;29;20100;-83
2023/08/21 01:51:27;;;;;;;3.17;0.57;;;;;;;;;;4940568;29;20484;-83
2023/08/21 01:53:52;;;;;;;2.38;0.60;;;;;;;;;;4940515;29;20031;-83
2023/08/21 01:56:19;;;;;;;1.77;0.40;;;;;;;;;;4939798;29;20027;-83
2023/08/21 01:58:45;;;;;;;3.05;0.73;;;;;;;;;;4923469;29;20038;-85
2023/08/21 02:01:11;;;;;;;0.85;0.40;;;;;;;;;;4923134;29;20028;-78
2023/08/21 02:03:37;;;;;;;1.52;0.50;;;;;;;;;;4940502;29;20099;-78
2023/08/21 02:06:03;;;;;;;1.73;0.50;;;;;;;;;;4940471;29;20051;-78
2023/08/21 02:08:34;;;;;;;1.23;0.50;;;;;;;;;;4940410;29;20036;-78
2023/08/21 02:11:01;;;;;;;1.88;0.43;;;;;;;;;;4939890;29;20079;-78
2023/08/21 02:13:27;;;;;;;2.22;0.55;;;;;;;;;;4940466;29;20028;-78
2023/08/21 02:15:53;;;;;;;2.22;0.60;;;;;;;;;;4939952;29;20032;-78
2023/08/21 02:18:19;;;;;;;1.27;0.40;;;;;;;;;;4939965;29;20032;-80
2023/08/21 02:20:45;;;;;;;1.58;0.50;;;;;;;;;;4939771;29;20035;-84
2023/08/21 02:23:11;;;;;;;1.20;0.40;;;;;;;;;;4903479;29;20072;-85
2023/08/21 02:25:37;;;;;;;0.63;0.43;;;;;;;;;;4900716;29;20040;-84
2023/08/21 02:28:04;;;;;;;1.13;0.50;;;;;;;;;;4902017;29;20024;-83
2023/08/21 02:30:30;;;;;;;1.85;0.52;;;;;;;;;;4900730;29;20032;-84
2023/08/21 02:32:56;;;;;;;3.45;0.60;;;;;;;;;;4913529;29;20024;-83
2023/08/21 02:35:22;;;;;;;1.23;0.50;;;;;;;;;;4903199;29;20104;-84
2023/08/21 02:37:48;;;;;;;2.05;0.52;;;;;;;;;;4900604;29;20052;-84
2023/08/21 02:40:14;;;;;;;1.63;0.60;;;;;;;;;;4888174;29;20039;-84
2023/08/21 02:42:40;;;;;;;2.08;0.50;;;;;;;;;;4902016;29;20060;-84
2023/08/21 02:45:09;;;;;;;1.42;0.50;;;;;;;;;;4900412;29;20036;-81
2023/08/21 02:47:39;;;;;;;1.60;0.50;;;;;;;;;;4900557;29;20028;-79
2023/08/21 02:50:06;;;;;;;3.35;0.80;;;;;;;;;;4889767;29;20474;-79
2023/08/21 02:52:32;;;;;;;3.17;0.70;;;;;;;;;;4901824;29;20024;-78
2023/08/21 02:54:58;;;;;;;2.25;0.50;;;;;;;;;;4901889;29;20071;-79
2023/08/21 02:57:25;;;;;;;2.85;0.60;;;;;;;;;;4901817;29;20059;-78
2023/08/21 02:59:51;;;;;;;2.85;0.57;;;;;;;;;;4901843;29;20028;-79
2023/08/21 03:02:18;;;;;;;2.78;0.65;;;;;;;;;;4901571;29;20057;-79
2023/08/21 03:04:44;;;;;;;2.22;0.70;;;;;;;;;;4901844;29;20040;-79
2023/08/21 03:07:10;;;;;;;2.97;0.70;;;;;;;;;;4901722;29;20112;-79
2023/08/21 03:09:36;;;;;;;1.40;0.60;;;;;;;;;;4900601;29;20096;-78
2023/08/21 03:12:03;;;;;;;2.20;0.60;;;;;;;;;;4900479;29;20518;-79
2023/08/21 03:14:29;;;;;;;2.08;0.68;;;;;;;;;;4901758;29;20025;-83
2023/08/21 03:16:55;;;;;;;3.47;0.75;;;;;;;;;;4900624;29;20482;-81
2023/08/21 03:19:21;;;;;;;1.60;0.60;;;;;;;;;;4901779;29;20039;-83
2023/08/21 03:21:47;;;;;;;2.22;0.73;;;;;;;;;;4911807;29;20056;-82
2023/08/21 03:24:13;;;;;;;2.28;0.90;;;;;;;;;;4939525;29;20032;-82
2023/08/21 03:26:39;;;;;;;3.42;0.95;;;;;;;;;;4939001;29;20098;-82
2023/08/21 03:29:05;;;;;;;3.95;1.00;;;;;;;;;;4922244;29;20118;-82
2023/08/21 03:31:31;;;;;;;5.32;1.50;;;;;;;;;;4941916;29;20034;-80
2023/08/21 03:33:57;;;;;;;3.58;1.08;;;;;;;;;;4943064;29;20575;-79
2023/08/21 03:36:33;;;;;;;3.03;0.90;;;;;;;;;;4942966;29;20028;-78
2023/08/21 03:39:02;;;;;;;2.45;0.80;;;;;;;;;;4934861;29;20035;-78
2023/08/21 03:41:28;;;;;;;2.00;0.90;;;;;;;;;;4938659;29;20020;-78
2023/08/21 03:43:54;;;;;;;2.38;1.05;;;;;;;;;;4942833;29;20095;-78
2023/08/21 03:46:20;;;;;;;1.42;0.77;;;;;;;;;;4925911;29;20063;-78
2023/08/21 03:48:46;;;;;;;3.53;1.00;;;;;;;;;;4942695;29;20418;-77
2023/08/21 03:51:12;;;;;;;2.65;1.08;;;;;;;;;;4942704;29;20020;-78
2023/08/21 03:53:38;;;;;;;2.50;0.85;;;;;;;;;;4942941;29;20110;-78
2023/08/21 03:56:04;;;;;;;1.70;0.85;;;;;;;;;;4942202;29;20563;-78
2023/08/21 03:58:32;;;;;;;1.48;0.70;;;;;;;;;;4942603;29;20532;-83
2023/08/21 04:00:58;;;;;;;1.63;0.80;;;;;;;;;;4942447;29;20027;-82
2023/08/21 04:03:25;;;;;;;2.25;0.80;;;;;;;;;;4942722;29;20043;-83
2023/08/21 04:05:51;;;;;;;1.50;0.73;;;;;;;;;;4942326;29;20111;-82
2023/08/21 04:08:17;;;;;;;1.27;0.73;;;;;;;;;;4942631;29;20031;-82
2023/08/21 04:10:43;;;;;;;1.55;0.73;;;;;;;;;;4925134;29;20024;-78
2023/08/21 04:13:09;;;;;;;0.90;0.60;;;;;;;;;;4942400;29;20024;-78
2023/08/21 04:15:35;;;;;;;1.10;0.70;;;;;;;;;;4942188;29;20074;-78
2023/08/21 04:18:01;;;;;;;1.35;0.80;;;;;;;;;;4942380;29;20472;-78
2023/08/21 04:20:27;;;;;;;0.93;0.63;;;;;;;;;;4942311;29;20488;-78
2023/08/21 04:22:53;;;;;;;1.25;0.85;;;;;;;;;;4942246;29;20064;-80
2023/08/21 04:25:19;;;;;;;1.35;0.65;;;;;;;;;;4941759;29;20110;-81
2023/08/21 04:27:45;;;;;;;0.90;0.70;;;;;;;;;;4942122;29;20031;-80
2023/08/21 04:30:11;;;;;;;1.00;0.68;;;;;;;;;;4941967;29;20031;-80
2023/08/21 04:32:38;;;;;;;0.95;0.80;;;;;;;;;;4925191;29;20030;-80
2023/08/21 04:35:05;;;;;;;1.13;0.80;;;;;;;;;;4941955;29;20036;-80
2023/08/21 04:37:31;;;;;;;1.15;0.60;;;;;;;;;;4941986;29;20027;-80
2023/08/21 04:39:57;;;;;;;1.05;0.80;;;;;;;;;;4928876;29;20058;-78
2023/08/21 04:42:23;;;;;;;0.88;0.60;;;;;;;;;;4924722;29;20028;-78
2023/08/21 04:44:49;;;;;;;0.80;0.70;;;;;;;;;;4941634;29;20027;-78
2023/08/21 04:47:22;;;;;;;1.40;0.80;;;;;;;;;;4941860;29;20416;-78
2023/08/21 04:49:48;;;;;;;;;;;;;;;;;;4926202;29;20035;-78
2023/08/21 04:52:14;;;;;;;1.00;0.70;;;;;;;;;;4941723;29;19907;-78
2023/08/21 04:54:40;;;;;;;1.20;0.70;;;;;;;;;;4941224;29;20547;-78
2023/08/21 04:57:06;;;;;;;1.75;1.00;;;;;;;;;;4941516;29;20497;-78
2023/08/21 04:59:32;;;;;;;1.25;0.80;;;;;;;;;;4941550;29;20424;-78
2023/08/21 05:01:58;;;;;;;1.25;0.70;;;;;;;;;;4941221;29;20511;-78
2023/08/21 05:04:24;;;;;;;1.27;0.90;;;;;;;;;;4941258;29;20024;-78
2023/08/21 05:06:50;;;;;;;1.08;0.98;;;;;;;;;;4941461;29;20121;-83
2023/08/21 05:09:16;;;;;;;1.08;0.70;;;;;;;;;;4941214;29;20032;-82
2023/08/21 05:11:42;;;;;;;1.38;0.70;;;;;;;;;;4940848;29;20030;-82
2023/08/21 05:14:08;;;;;;;1.00;0.70;;;;;;;;;;4924118;29;20404;-83
2023/08/21 05:16:34;;;;;;;1.10;0.70;;;;;;;;;;4941242;29;20370;-78
2023/08/21 05:19:00;;;;;;;0.98;0.70;;;;;;;;;;4941095;29;20575;-78
2023/08/21 05:21:26;;;;;;;1.13;0.70;;;;;;;;;;4941088;29;20079;-77
2023/08/21 05:23:52;;;;;;;1.05;0.80;;;;;;;;;;4940887;29;20031;-79
2023/08/21 05:26:20;;;;;;;1.05;0.60;;;;;;;;;;4940691;29;20040;-78
2023/08/21 05:28:46;;;;;;;1.40;0.52;;;;;;;;;;4923600;29;20043;-78
2023/08/21 05:31:12;;;;;;;1.05;0.70;;;;;;;;;;4923864;29;20020;-79
2023/08/21 05:33:38;;;;;;;0.85;0.65;;;;;;;;;;4923599;29;20401;-79
2023/08/21 05:36:05;;;;;;;1.13;0.77;;;;;;;;;;4923766;29;20030;-79
2023/08/21 05:38:31;;;;;;;1.42;0.80;;;;;;;;;;4936055;29;20483;-79
2023/08/21 05:40:58;;;;;;;0.90;0.68;;;;;;;;;;4932674;29;20027;-80
2023/08/21 05:43:24;;;;;;;1.48;0.75;;;;;;;;;;4940485;29;20028;-79
2023/08/21 05:45:50;;;;;;;2.08;0.90;;;;;;;;;;4923880;29;20031;-79
2023/08/21 05:48:19;;;;;;;1.17;0.70;;;;;;;;;;4924247;29;20473;-79
2023/08/21 05:50:45;;;;;;;1.27;0.70;;;;;;;;;;4943331;29;20029;-79
2023/08/21 05:53:11;;;;;;;1.13;0.80;;;;;;;;;;4940532;29;20067;-79
2023/08/21 05:55:37;;;;;;;1.77;0.68;;;;;;;;;;4940148;29;20083;-79
2023/08/21 05:58:03;;;;;;;1.63;0.98;;;;;;;;;;4940438;29;20420;-78
2023/08/21 06:00:29;;;;;;;0.90;0.60;;;;;;;;;;4923425;29;20086;-78
2023/08/21 06:02:55;;;;;;;1.10;0.60;;;;;;;;;;4923187;29;20031;-79
2023/08/21 06:05:21;;;;;;;1.15;0.73;;;;;;;;;;4940489;29;20472;-78
2023/08/21 06:07:48;;;;;;;0.70;0.50;;;;;;;;;;4939971;29;20547;-78
2023/08/21 06:10:14;;;;;;;0.93;0.57;;;;;;;;;;4940047;29;20078;-78
2023/08/21 06:12:41;;;;;;;2.58;0.70;;;;;;;;;;4940054;29;20028;-81
2023/08/21 06:15:11;;;;;;;1.05;0.80;;;;;;;;;;4940521;29;20078;-81
2023/08/21 06:17:38;;;;;;;1.17;0.73;;;;;;;;;;4923117;29;20036;-80
2023/08/21 06:20:08;;;;;;;1.58;0.70;;;;;;;;;;4940161;29;20028;-80
2023/08/21 06:22:35;;;;;;;1.00;0.70;;;;;;;;;;4939923;29;20420;-82
2023/08/21 06:25:01;;;;;;;1.30;0.63;;;;;;;;;;4923465;29;20063;-82
2023/08/21 06:27:27;;;;;;;0.90;0.60;;;;;;;;;;4930891;29;20067;-82
2023/08/21 06:29:53;;;;;;;1.38;0.80;;;;;;;;;;4933236;29;20023;-82
2023/08/21 06:32:19;;;;;;;2.03;0.88;;;;;;;;;;4944359;29;20036;-80
2023/08/21 06:34:45;;;;;;;2.00;1.00;;;;;;;;;;4931460;29;20134;-80
2023/08/21 06:37:12;;;;;;;2.10;0.70;;;;;;;;;;4947847;29;20033;-80
2023/08/21 06:39:38;;;;;;;1.08;0.80;;;;;;;;;;4944525;29;20039;-79
2023/08/21 06:42:05;;;;;;;1.92;1.02;;;;;;;;;;4930658;29;20406;-78
2023/08/21 06:44:31;;;;;;;1.92;0.93;;;;;;;;;;4949507;29;20081;-79
2023/08/21 06:46:57;;;;;;;2.30;1.00;;;;;;;;;;4943297;29;20034;-77
2023/08/21 06:49:23;;;;;;;1.70;1.30;;;;;;;;;;4923771;29;20028;-81
2023/08/21 06:51:49;;;;;;;2.20;1.05;;;;;;;;;;4924988;29;20095;-77
2023/08/21 06:54:15;;;;;;;2.22;1.17;;;;;;;;;;4938827;29;20031;-78
2023/08/21 06:56:41;;;;;;;2.28;1.40;;;;;;;;;;4938514;29;20032;-77
2023/08/21 06:59:07;;;;;;;2.25;1.15;;;;;;;;;;4927645;29;20029;-79
2023/08/21 07:01:33;;;;;;;2.55;1.27;;;;;;;;;;4937707;29;20036;-78
2023/08/21 07:03:59;;;;;;;3.45;0.90;;;;;;;;;;4938373;29;20032;-78
2023/08/21 07:06:28;;;;;;;1.08;0.90;;;;;;;;;;4924820;29;20027;-78
2023/08/21 07:08:54;;;;;;;0.85;0.85;;;;;;;;;;4943093;29;20078;-78
2023/08/21 07:11:20;;;;;;;1.10;0.68;;;;;;;;;;4943129;29;20031;-78
2023/08/21 07:13:46;;;;;;;1.88;0.80;;;;;;;;;;4942753;29;20027;-79
2023/08/21 07:16:12;;;;;;;1.48;0.80;;;;;;;;;;4925968;29;20023;-78
2023/08/21 07:18:38;;;;;;;2.13;0.52;;;;;;;;;;4943074;29;20031;-71
2023/08/21 07:21:04;;;;;;;2.05;0.77;;;;;;;;;;4943135;29;20544;-72
2023/08/21 07:23:31;;;;;;;1.77;0.80;;;;;;;;;;4940507;29;20079;-72
2023/08/21 07:25:58;;;;;;;1.30;0.57;;;;;;;;;;4942197;29;20030;-75
2023/08/21 07:28:24;;;;;;;2.25;0.60;;;;;;;;;;4940580;29;20028;-72
2023/08/21 07:30:56;;;;;;;0.90;0.55;;;;;;;;;;4942281;29;20512;-72
2023/08/21 07:33:22;;;;;;;1.73;0.52;;;;;;;;;;4929501;29;20027;-73
2023/08/21 07:35:48;;;;;;;2.70;0.80;;;;;;;;;;4941172;29;20027;-74
2023/08/21 07:38:14;;;;;;;1.80;0.65;;;;;;;;;;4921923;29;20131;-71
2023/08/21 07:40:40;;;;;;;1.45;0.70;;;;;;;;;;4930989;29;20032;-74
2023/08/21 07:43:06;;;;;;;3.35;0.70;;;;;;;;;;4941311;29;20031;-71
2023/08/21 07:45:32;;;;;;;3.88;0.82;;;;;;;;;;4924266;29;20075;-71
2023/08/21 07:47:58;;;;;;;2.80;1.33;;;;;;;;;;4941085;29;20035;-73
2023/08/21 07:50:24;;;;;;;0.75;0.50;;;;;;;;;;4941565;29;20027;-71
2023/08/21 07:52:50;;;;;;;3.25;0.68;;;;;;;;;;4941293;29;20028;-71
2023/08/21 07:55:16;;;;;;;3.80;0.75;;;;;;;;;;4940408;29;20028;-71
2023/08/21 07:57:42;;;;;;;4.10;0.70;;;;;;;;;;4942088;29;20034;-71
2023/08/21 08:00:09;;;;;;;1.95;0.50;;;;;;;;;;4942576;29;20489;-71
2023/08/21 08:02:35;;;;;;;2.75;0.70;;;;;;;;;;4942281;29;20032;-71
2023/08/21 08:05:01;;;;;;;2.35;0.73;;;;;;;;;;4925038;29;20031;-74
2023/08/21 08:07:27;;;;;;;2.78;1.00;;;;;;;;;;4941268;29;20083;-72
2023/08/21 08:09:53;;;;;;;1.70;0.60;;;;;;;;;;4924532;29;20031;-72
2023/08/21 08:12:19;;;;;;;2.13;0.73;;;;;;;;;;4954251;29;20054;-71
2023/08/21 08:14:46;;;;;;;1.23;0.50;;;;;;;;;;4941775;29;20047;-70
2023/08/21 08:17:12;;;;;;;2.63;0.73;;;;;;;;;;4940950;29;20020;-70
2023/08/21 08:19:38;;;;;;;2.33;0.75;;;;;;;;;;4941121;29;20100;-71
2023/08/21 08:22:04;;;;;;;2.53;0.80;;;;;;;;;;4941265;29;20048;-72
2023/08/21 08:24:30;;;;;;;1.77;0.70;;;;;;;;;;4940754;29;20747;-73
2023/08/21 08:26:57;;;;;;;1.92;0.90;;;;;;;;;;4943320;29;20031;-73
2023/08/21 08:29:23;;;;;;;1.52;0.60;;;;;;;;;;4942034;29;20388;-72
2023/08/21 08:31:49;;;;;;;3.55;0.80;;;;;;;;;;4944561;29;20103;-71
2023/08/21 08:34:17;;;;;;;3.45;0.77;;;;;;;;;;4948671;29;20392;-71
2023/08/21 08:36:43;;;;;;;2.05;0.60;;;;;;;;;;4944353;29;20039;-70
2023/08/21 08:39:10;;;;;;;3.03;0.70;;;;;;;;;;4947760;29;20481;-72
2023/08/21 08:41:44;;;;;;;2.85;0.60;;;;;;;;;;4941368;29;20028;-70
2023/08/21 08:44:11;;;;;;;2.00;0.70;;;;;;;;;;4941129;29;20116;-71
2023/08/21 08:46:37;;;;;;;2.88;0.73;;;;;;;;;;4940827;29;20476;-70
2023/08/21 08:49:04;;;;;;;2.28;0.60;;;;;;;;;;4941562;29;20028;-72
2023/08/21 08:51:30;;;;;;;3.30;0.80;;;;;;;;;;4924085;29;20038;-72
2023/08/21 08:53:58;;;;;;;3.05;0.70;;;;;;;;;;4923096;29;20020;-71
2023/08/21 08:56:25;;;;;;;3.17;0.70;;;;;;;;;;4941275;29;20050;-71
2023/08/21 08:58:51;;;;;;;3.08;0.88;;;;;;;;;;4941982;29;20024;-70
2023/08/21 09:01:17;;;;;;;5.72;1.10;;;;;;;;;;4924393;29;20094;-70
2023/08/21 09:03:43;;;;;;;2.40;0.73;;;;;;;;;;4940771;29;20111;-69
2023/08/21 09:06:09;;;;;;;3.53;0.75;;;;;;;;;;4940261;29;20031;-70
2023/08/21 09:08:35;;;;;;;2.65;0.85;;;;;;;;;;4940977;29;20082;-72
2023/08/21 09:11:03;;;;;;;2.67;0.73;;;;;;;;;;4940774;29;20039;-72
2023/08/21 09:13:29;;;;;;;1.45;0.57;;;;;;;;;;4941255;29;20545;-72
2023/08/21 09:15:55;;;;;;;5.03;0.65;;;;;;;;;;4939797;29;20059;-72
2023/08/21 09:18:22;;;;;;;2.70;0.70;;;;;;;;;;4941197;29;20050;-72
2023/08/21 09:20:48;;;;;;;2.70;0.70;;;;;;;;;;4923375;29;20028;-72
2023/08/21 09:23:18;;;;;;;4.15;0.90;;;;;;;;;;4941053;29;20052;-73
2023/08/21 09:25:47;;;;;;;3.38;0.65;;;;;;;;;;4922983;29;20500;-72
2023/08/21 09:28:13;;;;;;;2.95;0.82;;;;;;;;;;4940114;29;20028;-72
2023/08/21 09:30:50;;;;;;;2.83;0.70;;;;;;;;;;4923380;29;20095;-72
2023/08/21 09:33:23;;;;;;;3.85;0.90;;;;;;;;;;4922959;29;20043;-69
2023/08/21 09:35:52;;;;;;;2.05;0.60;;;;;;;;;;4940244;29;20066;-71
2023/08/21 09:38:19;;;;;;;2.15;0.82;;;;;;;;;;4937032;29;20453;-74
2023/08/21 09:40:51;;;;;;;1.88;0.73;;;;;;;;;;4930573;29;20024;-75
2023/08/21 09:43:17;;;;;;;4.72;0.73;;;;;;;;;;4940835;29;20082;-71
2023/08/21 09:45:46;;;;;;;3.67;0.70;;;;;;;;;;4941040;29;20138;-72
2023/08/21 09:48:12;;;;;;;2.65;0.90;;;;;;;;;;4940089;29;20028;-70
2023/08/21 09:50:40;;;;;;;2.30;0.65;;;;;;;;;;4940468;29;20440;-70
2023/08/21 09:53:06;;;;;;;3.33;0.80;;;;;;;;;;4940354;29;20051;-72
2023/08/21 09:55:33;;;;;;;2.67;0.70;;;;;;;;;;4922053;29;20039;-71
2023/08/21 09:58:00;;;;;;;1.63;0.60;;;;;;;;;;4923444;29;20035;-77
2023/08/21 10:00:35;;;;;;;1.60;0.70;;;;;;;;;;4940566;29;20028;-71
2023/08/21 10:03:07;;;;;;;2.60;0.60;;;;;;;;;;4923047;29;20027;-67
2023/08/21 10:05:34;;;;;;;2.08;0.60;;;;;;;;;;4940341;29;20024;-72
2023/08/21 10:08:03;;;;;;;4.15;0.70;;;;;;;;;;4939523;29;20086;-73
2023/08/21 10:10:30;;;;;;;2.80;0.65;;;;;;;;;;4946248;29;20031;-73
2023/08/21 10:12:56;;;;;;;2.75;0.70;;;;;;;;;;4924294;29;20024;-74
2023/08/21 10:15:22;;;;;;;3.00;0.70;;;;;;;;;;4940246;29;20401;-79
2023/08/21 10:17:48;;;;;;;2.10;0.80;;;;;;;;;;4946231;29;20106;-76
2023/08/21 10:20:21;;;;;;;2.33;0.60;;;;;;;;;;4939532;29;20059;-78
2023/08/21 10:22:49;;;;;;;1.60;0.50;;;;;;;;;;4939502;29;20076;-75
2023/08/21 10:25:22;;;;;;;1.95;0.60;;;;;;;;;;4942225;29;20408;-74
2023/08/21 10:27:52;;;;;;;2.50;0.65;;;;;;;;;;4940171;29;20038;-71
2023/08/21 10:30:22;;;;;;;2.63;0.63;;;;;;;;;;4939620;29;20020;-68
2023/08/21 10:32:49;;;;;;;2.38;0.65;;;;;;;;;;4939722;29;20027;-68
2023/08/21 10:35:16;;;;;;;2.47;0.80;;;;;;;;;;4938736;29;20030;-69
2023/08/21 10:38:08;;;;;;;2.58;0.50;;;;;;;;;;4939049;29;20023;-73
2023/08/21 10:40:35;;;;;;;3.20;0.77;;;;;;;;;;4908699;29;20106;-70
2023/08/21 10:43:02;;;;;;;2.05;0.65;;;;;;;;;;4948165;29;20415;-70
2023/08/21 10:45:29;;;;;;;3.15;0.80;;;;;;;;;;4939082;29;20122;-70
2023/08/21 10:48:01;;;;;;;1.83;0.60;;;;;;;;;;4938548;29;20055;-72
2023/08/21 10:50:27;;;;;;;4.70;0.70;;;;;;;;;;4921922;29;20027;-72
2023/08/21 10:52:54;;;;;;;2.47;0.80;;;;;;;;;;4929346;29;20043;-76
2023/08/21 10:55:20;;;;;;;1.75;0.60;;;;;;;;;;4946783;29;20445;-78
2023/08/21 10:57:50;;;;;;;2.22;0.63;;;;;;;;;;4945062;29;20024;-72
2023/08/21 11:00:17;;;;;;;2.17;0.57;;;;;;;;;;4944927;29;20459;-75
2023/08/21 11:02:44;;;;;;;1.42;0.60;;;;;;;;;;4938957;29;20099;-72
2023/08/21 11:05:11;;;;;;;3.17;0.75;;;;;;;;;;4921416;29;20429;-73
2023/08/21 11:07:39;;;;;;;1.17;0.63;;;;;;;;;;4938697;29;20027;-74
2023/08/21 11:10:07;;;;;;;2.15;0.70;;;;;;;;;;4938751;29;20437;-73
2023/08/21 11:12:33;;;;;;;1.50;0.60;;;;;;;;;;4939080;29;20024;-71
2023/08/21 11:14:59;;;;;;;1.83;0.70;;;;;;;;;;4922256;29;20487;-71
2023/08/21 11:17:25;;;;;;;2.58;0.82;;;;;;;;;;4930815;29;20054;-68
2023/08/21 11:19:51;;;;;;;2.30;0.98;;;;;;;;;;4939224;29;20101;-71
2023/08/21 11:22:18;;;;;;;1.83;0.60;;;;;;;;;;4938840;29;20044;-69
2023/08/21 11:24:45;;;;;;;1.67;0.50;;;;;;;;;;4938058;29;20079;-72
2023/08/21 11:27:12;;;;;;;2.60;0.80;;;;;;;;;;4921885;29;20488;-73
2023/08/21 11:29:39;;;;;;;1.67;0.40;;;;;;;;;;4921770;29;20032;-75
2023/08/21 11:32:09;;;;;;;2.40;0.70;;;;;;;;;;4938923;29;20034;-71
2023/08/21 11:34:35;;;;;;;1.30;0.50;;;;;;;;;;4938567;29;20019;-73
2023/08/21 11:37:01;;;;;;;1.30;0.60;;;;;;;;;;4938325;29;20551;-74
2023/08/21 11:39:30;;;;;;;2.15;0.60;;;;;;;;;;4926339;29;20498;-75
2023/08/21 11:41:59;;;;;;;5.65;0.80;;;;;;;;;;4943031;29;20087;-78
2023/08/21 11:44:25;;;;;;;1.98;0.60;;;24.30;96.40;;;;;;4921619;29;20108;-72
2023/08/21 11:46:52;;;;;;;1.45;0.57;;;24.10;95.30;;;;;;4939288;29;20060;-74
2023/08/21 11:49:18;;;;;;;1.65;0.63;;;24.10;95.30;;;;;;4938729;29;20020;-73
2023/08/21 11:51:46;;;;;;;2.25;0.70;;;24.10;95.80;;;;;;4922662;29;20107;-74
2023/08/21 11:54:11;;;;;;;2.55;0.70;;;24.20;96.40;;;;;;4942241;29;20130;-74
2023/08/21 11:56:39;;;;;;;1.35;0.60;;;24.40;96.10;;;;;;4941514;29;20063;-72
2023/08/21 11:59:05;;;;;;;3.90;0.80;;;24.50;95.20;;;;;;4942754;29;20401;-71
2023/08/21 12:01:33;;;;;;;2.05;0.70;;;24.60;94.80;;;;;;4942376;29;20046;-75
2023/08/21 12:03:59;;;;;;;1.30;0.52;;;24.50;93.90;;;;;;4942004;29;20027;-75
2023/08/21 12:06:25;;;;;;;2.67;0.60;;;24.40;92.90;;;;;;4923998;29;20034;-74
2023/08/21 12:08:51;;;;;;;1.30;0.60;;;24.40;93.30;;;;;;4941902;29;20094;-74
2023/08/21 12:11:17;;;;;;;1.70;0.60;;;24.40;93.70;;;;;;4924480;29;20426;-74
2023/08/21 12:13:42;;;;;;;1.45;0.60;;;24.50;91.50;;;;;;4941845;29;20046;-72
2023/08/21 12:16:08;;;;;;;1.70;0.65;;;24.50;92.90;;;;;;4942703;29;20020;-72
2023/08/21 12:18:34;;;;;;;2.42;0.70;;;24.60;93.30;;;;;;4925477;29;20509;-72
2023/08/21 12:21:00;;;;;;;2.05;0.70;;;24.70;93.70;;;;;;4942958;29;20027;-72
2023/08/21 12:23:26;;;;;;;1.73;0.50;;;24.70;94.10;;;;;;4942069;29;20115;-72
2023/08/21 12:25:51;;;;;;;0.82;0.50;;;24.90;93.90;;;;;;4924963;29;20027;-72
2023/08/21 12:28:17;;;;;;;1.98;0.52;;;25.00;92.40;;;;;;4942716;29;20055;-72
2023/08/21 12:30:43;;;;;;;3.42;0.80;;;25.00;92.80;;;;;;4942667;29;20020;-72
2023/08/21 12:33:08;;;;;;;2.35;0.60;;;25.00;91.70;;;;;;4942703;29;20067;-72
2023/08/21 12:35:34;;;;;;;2.20;0.50;;;25.10;92.40;;;;;;4923763;29;20016;-74
2023/08/21 12:38:05;;;;;;;1.17;0.50;;;25.10;92.90;;;;;;4928799;29;20031;-73
2023/08/21 12:40:32;;;;;;;3.17;0.60;;;25.10;91.40;;;;;;4947298;29;20283;-72
2023/08/21 12:42:57;;;;;;;1.95;0.50;;;25.10;92.60;;;;;;4949876;29;20019;-72
2023/08/21 12:45:23;;;;;;;2.55;0.60;;;25.10;91.70;;;;;;4926325;29;20032;-71
2023/08/21 12:47:49;;;;;;;4.15;0.60;;;25.00;90.90;;;;;;4946033;29;20448;-72
2023/08/21 12:50:14;;;;;;;2.90;0.50;;;25.00;90.40;;;;;;4954375;29;20042;-72
2023/08/21 12:52:41;;;;;;;1.83;0.60;;;25.10;90.40;;;;;;4947048;29;20035;-73
2023/08/21 12:55:07;;;;;;;1.02;0.55;;;25.10;89.70;;;;;;4932602;29;20412;-73
2023/08/21 12:57:33;;;;;;;1.77;0.60;;;25.10;90.20;;;;;;4925273;29;20024;-72
2023/08/21 12:59:59;;;;;;;1.83;0.60;;;25.10;90.90;;;;;;4943115;29;20035;-72
2023/08/21 13:02:27;;;;;;;3.13;0.60;;;25.20;90.20;;;;;;4942960;29;20548;-72
2023/08/21 13:04:52;;;;;;;1.65;0.50;;;25.40;90.70;;;;;;4942989;29;20424;-72
2023/08/21 13:07:18;;;;;;;1.48;0.60;;;25.50;90.10;;;;;;4925958;29;20079;-71
2023/08/21 13:09:44;;;;;;;4.22;0.63;;;25.40;89.00;;;;;;4953292;29;20024;-72
2023/08/21 13:12:10;;;;;;;0.82;0.50;;;25.40;89.10;;;;;;4942684;29;20032;-72
2023/08/21 13:14:35;;;;;;;1.55;0.50;;;25.40;89.60;;;;;;4948445;29;20030;-72
2023/08/21 13:17:01;;;;;;;1.95;0.50;;;25.40;88.30;;;;;;4942775;29;20087;-72
2023/08/21 13:19:27;;;;;;;1.50;0.70;;;25.40;88.40;;;;;;4953239;29;20034;-72
2023/08/21 13:21:54;;;;;;;1.73;0.52;;;25.40;89.20;;;;;;4941168;29;20050;-72
2023/08/21 13:24:19;;;;;;;1.80;0.60;;;25.60;89.80;;;;;;4940861;29;20035;-74
2023/08/21 13:26:45;;;;;;;1.98;0.50;;;25.70;87.70;;;;;;4941019;29;20028;-74
2023/08/21 13:29:11;;;;;;;1.83;0.60;;;25.70;86.60;;;;;;4941400;29;20548;-74
2023/08/21 13:31:36;;;;;;;0.82;0.40;;;25.60;84.40;;;;;;4939438;29;20533;-76
2023/08/21 13:34:03;;;;;;;1.83;0.40;;;25.50;84.40;;;;;;4949457;29;20499;-72
2023/08/21 13:36:28;;;;;;;0.90;0.40;;;25.50;84.80;;;;;;4953596;29;20028;-71
2023/08/21 13:38:54;;;;;;;3.25;0.57;;;25.60;84.20;;;;;;4924297;29;20378;-71
2023/08/21 13:41:20;;;;;;;2.38;0.60;;;25.70;85.10;;;;;;4950823;29;20023;-71
2023/08/21 13:43:45;;;;;;;1.98;0.50;;;25.80;84.70;;;;;;4944733;29;20404;-73
2023/08/21 13:46:12;;;;;;;2.47;0.60;;;25.90;87.50;;;;;;4952652;29;20051;-72
2023/08/21 13:48:37;;;;;;;1.88;0.52;;;26.10;85.60;;;;;;4950637;29;20069;-74
2023/08/21 13:51:03;;;;;;;2.55;0.50;;;26.20;84.30;;;;;;4944856;29;20023;-73
2023/08/21 13:53:29;;;;;;;1.30;0.57;;;26.40;82.60;;;;;;4940420;29;20035;-72
2023/08/21 13:55:54;;;;;;;1.95;0.50;;;26.30;80.70;;;;;;4938721;29;20023;-72
2023/08/21 13:58:21;;;;;;;1.20;0.50;;;26.20;82.50;;;;;;4940296;29;20101;-72
2023/08/21 14:00:46;;;;;;;1.80;0.50;;;26.10;81.50;;;;;;4939938;29;20028;-71
2023/08/21 14:03:14;;;;;;;1.63;0.50;;;26.10;82.70;;;;;;4939462;29;20497;-72
2023/08/21 14:05:39;;;;;;;0.82;0.55;;;26.00;82.10;;;;;;4939270;29;20106;-74
2023/08/21 14:08:05;;;;;;;1.25;0.50;;;26.00;82.20;;;;;;4922011;29;20074;-71
2023/08/21 14:10:31;;;;;;;1.67;0.50;;;25.90;81.40;;;;;;4938813;29;20032;-70
2023/08/21 14:12:57;;;;;;;2.25;0.55;;;26.00;81.00;;;;;;4939144;29;20058;-71
2023/08/21 14:15:23;;;;;;;0.80;0.50;;;26.00;81.80;;;;;;4938668;29;20020;-74